Modena, NY (12548)

12:21 PM EST on December 25, 2014 (GMT -0500)
Tillson Lake | Change Station
CLOSE
Current Station
Personal Weather Station
Location: Wallkill, NY
Elevation: 469 ft
Nearby Weather Stations

Elev 469 ft 41.67 °N, 74.26 °W | Updated 6 seconds ago

Partly Cloudy
Partly Cloudy
48.4 °F
Feels Like 45 °F
N
7.6
Wind Variable Wind from NE
Gusts 11.4 mph

Today
High -- | Low -- °F
--% Chance of Precip.
Yesterday
High -- | Low -- °F
Precip. -- in
7:21 AM 4:31 PM
Waxing Crescent, 18% visible
Pressure 29.73 in
Visibility 20.0 miles
Clouds Mostly Cloudy 5000 ft
Windchill 45 °F
Dew Point 32 °F
Humidity 52%
Rainfall 0.02 in
Snow Depth Not available.
UV 1 out of 12
Pollen .10 out of 12
Air Quality Not available.
Flu Activity Not available.
METAR KSWF 251645Z 29012G22KT 20SM BKN050 09/01 A2973

More Conditions Fewer Conditions

Pressure 29.73 in
Visibility 20.0 miles
Clouds Mostly Cloudy 5000 ft
Windchill 45 °F
Dew Point 32 °F
Humidity 52%
Rainfall 0.02 in
Snow Depth Not available.
UV 1 out of 12
Pollen .10 out of 12
Air Quality Not available.
Flu Activity Not available.
METAR KSWF 251645Z 29012G22KT 20SM BKN050 09/01 A2973

More Conditions Fewer Conditions

10-Day Weather Forecast

Almanac

Astronomy

Dec. 25, 2014 Rise Set
Actual Time
Civil Twilight
Nautical Twilight
Astronomical Twilight
Moon
Length of Visible Light
Length of Day
Tomorrow will be .
, % of the Moon is Illuminated

Today's Extremes

State Highs State Lows

Community

WunderPhotos

Upload Photos

1,780,346 photos uploaded!

WunderBlogs® & News

Nearby

Air Quality

  Air Quality AQ Index Pollutant
Not available.

Snow Depth

Station Depth Elevation

Earthquake Activity

City Distance Mag. Time & Date
Minimum magnitude displayed is 2.5.

Coastal Water Temperatures

Place Temperature

Nearby Weather Stations